MSC Maya — 3FNF8 — position and weather

sailwx.info

Track history (hours):
 
Tides and Currents Weather Stations Pressure Air Temp Water Temp Dewpoint Dewpoint Depression Visibility Wind Speed Wind Dir Waves Ship Positions

MSC Maya

Last reported at 2014-Sep-09 00:20 UTC. Time now 2014-Sep-20 11:59 UTC.
Position N 36°48' W 075°46'.
Warning: this ship's position is 11 days out of date.

Length 180 m; draft 7.9 m.

Type: Cargo ship. MMSI: 351384000.

Date/timePositionNaut miles runAvg speedWind from/ knotsBaromVisibWave heightAir tempDewpointWater temp
2014-Sep-09 00:20N 36°48' W 075°46'1013.3
2014-Sep-08 23:33N 36°55' W 075°56'1111.1
2014-Sep-08 22:33N 36°59' W 076°09'10 9.6
2014-Sep-08 21:29N 36°55' W 076°20'2 1.1
2014-Sep-08 19:25N 36°53' W 076°21'0 0.0
2014-Sep-08 18:22N 36°53' W 076°21'0 0.0
2014-Sep-08 17:13N 36°53' W 076°21'0 0.0
2014-Sep-08 16:31N 36°53' W 076°21'0 0.0
2014-Sep-08 15:28N 36°53' W 076°21'0 0.0
2014-Sep-08 14:19N 36°53' W 076°21'0 0.0
2014-Sep-08 13:28N 36°53' W 076°21'0 0.0
2014-Sep-08 12:28N 36°53' W 076°21'0 0.0
2014-Sep-08 11:14N 36°53' W 076°21'0 0.1
2014-Sep-08 09:04N 36°53' W 076°21'4 6.8
2014-Sep-08 08:33N 36°56' W 076°20'1110.0
2014-Sep-08 07:30N 36°59' W 076°07'4 4.6
2014-Sep-08 06:32N 37°01' W 076°03'1614.8
2014-Sep-08 05:28N 37°16' W 076°07'9315.3
2014-Sep-07 23:24N 38°48' W 076°25'2513.5
2014-Sep-07 21:33N 39°12' W 076°31'4 3.8
2014-Sep-07 20:33N 39°15' W 076°33'0 0.0
2014-Sep-07 19:33N 39°15' W 076°33'0 0.0
2014-Sep-07 18:33N 39°15' W 076°33'0 0.0
2014-Sep-07 17:32N 39°15' W 076°33'0 0.0
2014-Sep-07 16:32N 39°15' W 076°33'0 0.0
2014-Sep-07 15:31N 39°15' W 076°33'0 0.0
2014-Sep-07 14:31N 39°15' W 076°33'0 0.0
2014-Sep-07 13:31N 39°15' W 076°33'0 0.0
2014-Sep-07 12:33N 39°15' W 076°33'0 0.0
2014-Sep-07 11:33N 39°15' W 076°33'0 0.0
2014-Sep-07 10:33N 39°15' W 076°33'0 0.0
2014-Sep-07 09:33N 39°15' W 076°33'5 5.3
2014-Sep-07 08:33N 39°11' W 076°28'1414.4
2014-Sep-07 07:34N 38°58' W 076°23'9515.7
2014-Sep-07 01:32N 37°24' W 076°05'1717.4
2014-Sep-07 00:33N 37°07' W 076°08'1515.4
2014-Sep-06 23:32N 36°55' W 075°55'1414.1
2014-Sep-06 22:33N 36°51' W 075°38'3515.7
2014-Sep-06 20:19N 37°13' W 075°05'6816.8
2014-Sep-06 16:17N 38°11' W 074°20'3717.2
2014-Sep-06 14:06N 38°47' W 074°05'917.3
2014-Sep-06 13:33N 38°56' W 074°02'2416.8
2014-Sep-06 12:06N 39°20' W 073°56'916.0
2014-Sep-06 11:33N 39°28' W 073°55'1615.8
2014-Sep-06 10:33N 39°44' W 073°52'1615.7
2014-Sep-06 09:33N 39°60' W 073°51'1615.8
2014-Sep-06 08:31N 40°16' W 073°49'1111.4
2014-Sep-06 07:33N 40°27' W 073°50'1111.2
2014-Sep-06 06:32N 40°34' W 074°02'6 6.7
2014-Sep-06 05:33N 40°39' W 074°09'3 2.7
2014-Sep-06 04:33N 40°41' W 074°09'0 0.0
2014-Sep-06 03:32N 40°41' W 074°09'0 0.0
2014-Sep-06 02:25N 40°41' W 074°09'0 0.0
2014-Sep-06 01:32N 40°41' W 074°09'0 0.0
2014-Sep-06 00:32N 40°41' W 074°09'0 0.0
2014-Sep-05 23:32N 40°41' W 074°09'0 0.0
2014-Sep-05 22:33N 40°41' W 074°09'0 0.0
2014-Sep-05 21:32N 40°41' W 074°09'0 0.0
2014-Sep-05 20:31N 40°41' W 074°09'0 0.0
2014-Sep-05 19:32N 40°41' W 074°09'0 0.0
2014-Sep-05 18:32N 40°41' W 074°09'0 0.0
2014-Sep-05 17:33N 40°41' W 074°09'0 0.0
2014-Sep-05 16:33N 40°41' W 074°09'0 0.0
2014-Sep-05 15:33N 40°41' W 074°09'0 0.0
2014-Sep-05 14:31N 40°41' W 074°09'0 0.0
2014-Sep-05 13:33N 40°41' W 074°09'0 0.0
2014-Sep-05 12:33N 40°41' W 074°09'0 0.0
2014-Sep-05 11:31N 40°41' W 074°09'0 0.0
2014-Sep-05 10:27N 40°41' W 074°09'0 0.0
2014-Sep-05 09:32N 40°41' W 074°09'0 0.0
2014-Sep-05 08:32N 40°41' W 074°09'0 0.0
2014-Sep-05 07:33N 40°41' W 074°09'0 0.0
2014-Sep-05 06:31N 40°41' W 074°09'0 0.0
2014-Sep-05 05:33N 40°41' W 074°09'0 0.0
2014-Sep-05 04:33N 40°41' W 074°09'2 1.9
2014-Sep-05 03:33N 40°39' W 074°09'5 5.1
2014-Sep-05 02:33N 40°37' W 074°03'1010.2
2014-Sep-05 01:33N 40°29' W 073°54'9 8.7
2014-Sep-05 00:33N 40°25' W 073°44'4 4.2
2014-Sep-04 23:33N 40°23' W 073°40'6 5.6
2014-Sep-04 22:33N 40°19' W 073°34'6 5.7
2014-Sep-04 21:33N 40°16' W 073°28'6 5.8
2014-Sep-04 20:33N 40°12' W 073°22'6 6.1
2014-Sep-04 19:33N 40°09' W 073°15'6 6.1
2014-Sep-04 18:33N 40°03' W 073°14'5 4.7
2014-Sep-04 17:33N 40°01' W 073°08'7 7.0
2014-Sep-04 16:33N 40°01' W 072°59'3 2.5
2014-Sep-04 15:33N 40°00' W 072°56'1 1.0
2014-Sep-04 14:33N 39°59' W 072°55'4 4.3
2014-Sep-04 13:33N 39°56' W 072°51'0 0.4
2014-Sep-04 12:33N 39°57' W 072°51'7 6.6
2014-Sep-04 11:33N 39°52' W 072°45'1010.2
2014-Sep-04 10:33N 39°47' W 072°33'1212.3
2014-Sep-04 09:33N 39°40' W 072°20'1312.9
2014-Sep-04 08:33N 39°34' W 072°06'1212.4
2014-Sep-04 07:33N 39°26' W 071°53'1313.0
2014-Sep-04 06:33N 39°19' W 071°39'1313.3
2014-Sep-04 05:33N 39°12' W 071°24'1313.3
2014-Sep-04 04:33N 39°06' W 071°09'1513.5
2014-Sep-04 03:26N 38°58' W 070°53'1313.4
2014-Sep-04 02:27N 38°51' W 070°38'1213.7
2014-Sep-04 01:33N 38°45' W 070°24'1414.4
2014-Sep-04 00:33N 38°39' W 070°08'2813.8
2014-Sep-03 22:33N 38°21' W 069°41'  
Track history (hours):
 
Tides and Currents Weather Stations Pressure Air Temp Water Temp Dewpoint Dewpoint Depression Visibility Wind Speed Wind Dir Waves Ship Positions

MSC Maya

Last reported at 2014-Sep-09 00:20 UTC. Time now 2014-Sep-20 11:59 UTC.
Position N 36°48' W 075°46'.
Warning: this ship's position is 11 days out of date.

Length 180 m; draft 7.9 m.

Type: Cargo ship. MMSI: 351384000.

Date/timePositionNaut miles runAvg speedWind from/ knotsBaromVisibWave heightAir tempDewpointWater temp
2014-Sep-09 00:20N 36°48' W 075°46'1013.3
2014-Sep-08 23:33N 36°55' W 075°56'1111.1
2014-Sep-08 22:33N 36°59' W 076°09'10 9.6
2014-Sep-08 21:29N 36°55' W 076°20'2 1.1
2014-Sep-08 19:25N 36°53' W 076°21'0 0.0
2014-Sep-08 18:22N 36°53' W 076°21'0 0.0
2014-Sep-08 17:13N 36°53' W 076°21'0 0.0
2014-Sep-08 16:31N 36°53' W 076°21'0 0.0
2014-Sep-08 15:28N 36°53' W 076°21'0 0.0
2014-Sep-08 14:19N 36°53' W 076°21'0 0.0
2014-Sep-08 13:28N 36°53' W 076°21'0 0.0
2014-Sep-08 12:28N 36°53' W 076°21'0 0.0
2014-Sep-08 11:14N 36°53' W 076°21'0 0.1
2014-Sep-08 09:04N 36°53' W 076°21'4 6.8
2014-Sep-08 08:33N 36°56' W 076°20'1110.0
2014-Sep-08 07:30N 36°59' W 076°07'4 4.6
2014-Sep-08 06:32N 37°01' W 076°03'1614.8
2014-Sep-08 05:28N 37°16' W 076°07'9315.3
2014-Sep-07 23:24N 38°48' W 076°25'2513.5
2014-Sep-07 21:33N 39°12' W 076°31'4 3.8
2014-Sep-07 20:33N 39°15' W 076°33'0 0.0
2014-Sep-07 19:33N 39°15' W 076°33'0 0.0
2014-Sep-07 18:33N 39°15' W 076°33'0 0.0
2014-Sep-07 17:32N 39°15' W 076°33'0 0.0
2014-Sep-07 16:32N 39°15' W 076°33'0 0.0
2014-Sep-07 15:31N 39°15' W 076°33'0 0.0
2014-Sep-07 14:31N 39°15' W 076°33'0 0.0
2014-Sep-07 13:31N 39°15' W 076°33'0 0.0
2014-Sep-07 12:33N 39°15' W 076°33'0 0.0
2014-Sep-07 11:33N 39°15' W 076°33'0 0.0
2014-Sep-07 10:33N 39°15' W 076°33'0 0.0
2014-Sep-07 09:33N 39°15' W 076°33'5 5.3
2014-Sep-07 08:33N 39°11' W 076°28'1414.4
2014-Sep-07 07:34N 38°58' W 076°23'9515.7
2014-Sep-07 01:32N 37°24' W 076°05'1717.4
2014-Sep-07 00:33N 37°07' W 076°08'1515.4
2014-Sep-06 23:32N 36°55' W 075°55'1414.1
2014-Sep-06 22:33N 36°51' W 075°38'3515.7
2014-Sep-06 20:19N 37°13' W 075°05'6816.8
2014-Sep-06 16:17N 38°11' W 074°20'3717.2
2014-Sep-06 14:06N 38°47' W 074°05'917.3
2014-Sep-06 13:33N 38°56' W 074°02'2416.8
2014-Sep-06 12:06N 39°20' W 073°56'916.0
2014-Sep-06 11:33N 39°28' W 073°55'1615.8
2014-Sep-06 10:33N 39°44' W 073°52'1615.7
2014-Sep-06 09:33N 39°60' W 073°51'1615.8
2014-Sep-06 08:31N 40°16' W 073°49'1111.4
2014-Sep-06 07:33N 40°27' W 073°50'1111.2
2014-Sep-06 06:32N 40°34' W 074°02'6 6.7
2014-Sep-06 05:33N 40°39' W 074°09'3 2.7
2014-Sep-06 04:33N 40°41' W 074°09'0 0.0
2014-Sep-06 03:32N 40°41' W 074°09'0 0.0
2014-Sep-06 02:25N 40°41' W 074°09'0 0.0
2014-Sep-06 01:32N 40°41' W 074°09'0 0.0
2014-Sep-06 00:32N 40°41' W 074°09'0 0.0
2014-Sep-05 23:32N 40°41' W 074°09'0 0.0
2014-Sep-05 22:33N 40°41' W 074°09'0 0.0
2014-Sep-05 21:32N 40°41' W 074°09'0 0.0
2014-Sep-05 20:31N 40°41' W 074°09'0 0.0
2014-Sep-05 19:32N 40°41' W 074°09'0 0.0
2014-Sep-05 18:32N 40°41' W 074°09'0 0.0
2014-Sep-05 17:33N 40°41' W 074°09'0 0.0
2014-Sep-05 16:33N 40°41' W 074°09'0 0.0
2014-Sep-05 15:33N 40°41' W 074°09'0 0.0
2014-Sep-05 14:31N 40°41' W 074°09'0 0.0
2014-Sep-05 13:33N 40°41' W 074°09'0 0.0
2014-Sep-05 12:33N 40°41' W 074°09'0 0.0
2014-Sep-05 11:31N 40°41' W 074°09'0 0.0
2014-Sep-05 10:27N 40°41' W 074°09'0 0.0
2014-Sep-05 09:32N 40°41' W 074°09'0 0.0
2014-Sep-05 08:32N 40°41' W 074°09'0 0.0
2014-Sep-05 07:33N 40°41' W 074°09'0 0.0
2014-Sep-05 06:31N 40°41' W 074°09'0 0.0
2014-Sep-05 05:33N 40°41' W 074°09'0 0.0
2014-Sep-05 04:33N 40°41' W 074°09'2 1.9
2014-Sep-05 03:33N 40°39' W 074°09'5 5.1
2014-Sep-05 02:33N 40°37' W 074°03'1010.2
2014-Sep-05 01:33N 40°29' W 073°54'9 8.7
2014-Sep-05 00:33N 40°25' W 073°44'4 4.2
2014-Sep-04 23:33N 40°23' W 073°40'6 5.6
2014-Sep-04 22:33N 40°19' W 073°34'6 5.7
2014-Sep-04 21:33N 40°16' W 073°28'6 5.8
2014-Sep-04 20:33N 40°12' W 073°22'6 6.1
2014-Sep-04 19:33N 40°09' W 073°15'6 6.1
2014-Sep-04 18:33N 40°03' W 073°14'5 4.7
2014-Sep-04 17:33N 40°01' W 073°08'7 7.0
2014-Sep-04 16:33N 40°01' W 072°59'3 2.5
2014-Sep-04 15:33N 40°00' W 072°56'1 1.0
2014-Sep-04 14:33N 39°59' W 072°55'4 4.3
2014-Sep-04 13:33N 39°56' W 072°51'0 0.4
2014-Sep-04 12:33N 39°57' W 072°51'7 6.6
2014-Sep-04 11:33N 39°52' W 072°45'1010.2
2014-Sep-04 10:33N 39°47' W 072°33'1212.3
2014-Sep-04 09:33N 39°40' W 072°20'1312.9
2014-Sep-04 08:33N 39°34' W 072°06'1212.4
2014-Sep-04 07:33N 39°26' W 071°53'1313.0
2014-Sep-04 06:33N 39°19' W 071°39'1313.3
2014-Sep-04 05:33N 39°12' W 071°24'1313.3
2014-Sep-04 04:33N 39°06' W 071°09'1513.5
2014-Sep-04 03:26N 38°58' W 070°53'1313.4
2014-Sep-04 02:27N 38°51' W 070°38'1213.7
2014-Sep-04 01:33N 38°45' W 070°24'1414.4
2014-Sep-04 00:33N 38°39' W 070°08'2813.8
2014-Sep-03 22:33N 38°21' W 069°41'  

Dump ship's entire track history